Time;durP1;ratioP1;P1;durP2;ratioP2;P2;SDS_P1;SDS_P2;PMS_P1;PMS_P2;Temp;Humidity;BMP_temperature;BMP_pressure;BME280_temperature;BME280_humidity;BME280_pressure;Samples;Min_cycle;Max_cycle;Signal;HPM_P1;HPM_P2
2021/12/14 00:00:17;;;;;;;24.05;12.45;;;;;;;6.62;100.00;102266.00;4894273;29;20103;-79
2021/12/14 00:02:50;;;;;;;24.27;12.82;;;;;;;6.39;100.00;102242.59;4904663;29;20056;-79
2021/12/14 00:05:18;;;;;;;23.90;12.00;;;;;;;6.38;100.00;102246.13;4914858;29;20393;-79
2021/12/14 00:07:44;;;;;;;24.38;12.85;;;;;;;6.40;100.00;102239.03;4927178;29;20051;-79
2021/12/14 00:10:30;;;;;;;24.63;13.55;;;;;;;6.36;100.00;102253.22;5014897;23;20057;-80
2021/12/14 00:13:08;;;;;;;23.42;12.65;;;;;;;6.46;100.00;102257.13;5028518;28;20472;-80
2021/12/14 00:15:37;;;;;;;26.10;13.75;;;;;;;6.74;100.00;102314.44;5022428;28;20046;-79
2021/12/14 00:18:06;;;;;;;24.73;12.40;;;;;;;6.64;100.00;102290.41;5021774;28;20053;-80
2021/12/14 00:20:37;;;;;;;25.50;13.18;;;;;;;6.59;100.00;102286.28;5018751;28;20033;-80
2021/12/14 00:25:36;;;;;;;22.17;11.95;;;;;;;6.57;100.00;102303.88;5024509;23;20051;-79
2021/12/14 00:30:39;;;;;;;25.13;13.13;;;;;;;6.50;100.00;102269.19;4560597;23;20053;-80
2021/12/14 00:33:13;;;;;;;23.33;12.30;;;;;;;6.44;100.00;102301.81;5038486;28;20040;-80
2021/12/14 00:35:42;;;;;;;26.08;14.45;;;;;;;6.59;100.00;102294.16;5034403;23;20054;-79
2021/12/14 00:38:14;;;;;;;24.73;14.27;;;;;;;6.54;100.00;102283.88;4999913;23;20071;-79
2021/12/14 00:40:46;;;;;;;27.10;14.52;;;;;;;6.23;100.00;102230.19;5023016;28;20528;-80
2021/12/14 00:43:12;;;;;;;27.00;14.55;;;;;;;6.53;100.00;102266.41;4990685;28;20056;-81
2021/12/14 00:45:52;;;;;;;27.98;14.45;;;;;;;6.39;100.00;102258.34;4998437;28;20034;-80
2021/12/14 00:48:18;;;;;;;23.88;12.70;;;;;;;6.24;100.00;102247.59;4998677;28;20105;-80
2021/12/14 00:50:54;;;;;;;27.27;14.57;;;;;;;6.06;100.00;102222.22;5023888;28;20030;-79
2021/12/14 00:53:20;;;;;;;26.08;14.50;;;;;;;6.31;100.00;102250.81;5010914;28;20018;-79
2021/12/14 00:55:49;;;;;;;28.10;15.27;;;;;;;6.41;100.00;102261.75;5012102;28;20030;-81
2021/12/14 00:58:23;;;;;;;28.77;14.80;;;;;;;6.51;100.00;102281.38;5009650;28;20021;-81
2021/12/14 01:01:04;;;;;;;30.00;16.63;;;;;;;6.47;100.00;102272.81;4993799;28;20075;-81
2021/12/14 01:03:39;;;;;;;31.88;16.48;;;;;;;6.27;100.00;102236.16;4985903;28;20465;-81
2021/12/14 01:06:10;;;;;;;27.13;14.50;;;;;;;6.40;100.00;102241.66;4987470;23;20061;-81
2021/12/14 01:08:39;;;;;;;28.35;15.55;;;;;;;6.37;100.00;102228.69;4961686;28;20453;-80
2021/12/14 01:11:12;;;;;;;29.48;15.13;;;;;;;6.58;100.00;102234.72;4946487;28;20043;-81
2021/12/14 01:13:45;;;;;;;30.00;16.08;;;;;;;6.68;100.00;102249.97;4996604;28;20022;-80
2021/12/14 01:16:32;;;;;;;28.17;15.10;;;;;;;6.39;100.00;102229.47;5015682;23;20081;-79
2021/12/14 01:19:13;;;;;;;26.85;14.98;;;;;;;6.42;100.00;102203.09;4994518;28;20376;-80
2021/12/14 01:27:40;;;;;;;29.40;15.90;;;;;;;6.55;100.00;102246.22;5051633;23;20053;-80
2021/12/14 01:30:30;;;;;;;28.10;16.10;;;;;;;6.43;100.00;102241.53;4989677;28;20089;-80
2021/12/14 01:33:04;;;;;;;27.83;15.15;;;;;;;6.39;100.00;102259.19;5005244;28;20023;-80
2021/12/14 01:35:36;;;;;;;31.30;16.60;;;;;;;6.11;100.00;102199.28;5007076;28;20026;-82
2021/12/14 01:38:31;;;;;;;;;;;;;;;;;;;;;
2021/12/14 01:41:13;;;;;;;28.48;16.02;;;;;;;6.25;100.00;102230.97;4931269;28;20034;-80
2021/12/14 01:43:50;;;;;;;28.38;15.38;;;;;;;6.39;100.00;102266.22;5020450;23;20051;-81
2021/12/14 01:46:26;;;;;;;31.55;16.00;;;;;;;6.24;100.00;102215.28;5002334;28;20030;-81
2021/12/14 01:48:53;;;;;;;33.00;16.33;;;;;;;6.45;100.00;102274.66;5022037;28;20046;-81
2021/12/14 01:51:20;;;;;;;30.13;16.73;;;;;;;6.19;100.00;102196.28;4987721;28;20500;-81
2021/12/14 01:53:55;;;;;;;29.83;16.15;;;;;;;6.27;100.00;102223.88;4983360;28;20043;-80
2021/12/14 01:56:26;;;;;;;31.77;16.30;;;;;;;6.16;100.00;102201.69;4991935;28;20064;-80
2021/12/14 01:59:00;;;;;;;29.55;15.85;;;;;;;6.38;100.00;102257.50;4993794;28;20042;-80
2021/12/14 02:01:36;;;;;;;31.47;16.73;;;;;;;6.25;100.00;102224.88;4981958;28;20049;-80
2021/12/14 02:04:11;;;;;;;31.85;16.20;;;;;;;6.31;100.00;102231.59;5012012;23;20260;-81
2021/12/14 02:06:37;;;;;;;32.30;16.80;;;;;;;6.25;100.00;102203.88;4942538;28;20055;-82
2021/12/14 02:09:16;;;;;;;29.85;17.23;;;;;;;6.39;100.00;102263.59;4979729;23;20034;-80
2021/12/14 02:11:47;;;;;;;30.85;16.38;;;;;;;6.43;100.00;102259.91;4969772;28;20042;-79
2021/12/14 02:14:17;;;;;;;28.73;16.83;;;;;;;6.44;100.00;102230.09;4976880;28;20047;-80
2021/12/14 02:16:48;;;;;;;31.98;17.58;;;;;;;6.15;100.00;102218.34;4976632;28;20296;-79
2021/12/14 02:19:15;;;;;;;31.95;17.08;;;;;;;6.39;100.00;102240.81;4954286;28;20038;-79
2021/12/14 02:21:47;;;;;;;29.10;16.40;;;;;;;6.55;100.00;102256.72;4968566;28;20436;-80
2021/12/14 02:24:14;;;;;;;34.72;17.60;;;;;;;6.56;100.00;102255.75;4971881;28;20178;-79
2021/12/14 02:26:42;;;;;;;32.30;17.08;;;;;;;6.48;100.00;102258.75;4970849;28;20016;-80
2021/12/14 02:29:49;;;;;;;32.85;18.00;;;;;;;6.17;100.00;102242.72;4981949;28;20027;-79
2021/12/14 02:32:21;;;;;;;32.88;17.63;;;;;;;6.45;100.00;102258.06;4944189;29;20152;-79
2021/12/14 02:34:51;;;;;;;33.08;18.15;;;;;;;6.36;100.00;102245.34;4959193;28;20041;-81
2021/12/14 02:37:24;;;;;;;34.10;18.85;;;;;;;6.15;100.00;102221.78;5035582;23;20080;-80
2021/12/14 02:40:02;;;;;;;34.20;18.73;;;;;;;6.29;100.00;102236.94;5026435;28;20044;-80
2021/12/14 02:42:30;;;;;;;36.00;19.95;;;;;;;5.99;100.00;102195.41;5025174;28;20034;-80
2021/12/14 02:45:05;;;;;;;36.15;19.50;;;;;;;5.95;100.00;102177.28;5029749;28;20124;-80
2021/12/14 02:47:33;;;;;;;33.75;19.60;;;;;;;6.10;100.00;102197.56;5023558;23;20065;-80
2021/12/14 02:49:59;;;;;;;38.75;19.95;;;;;;;6.05;100.00;102204.78;4992923;28;20111;-80
2021/12/14 02:52:35;;;;;;;37.42;20.38;;;;;;;5.97;100.00;102176.31;5003902;28;20042;-80
2021/12/14 02:55:10;;;;;;;36.75;20.60;;;;;;;6.20;100.00;102221.59;4999297;28;20050;-79
2021/12/14 02:57:39;;;;;;;39.83;21.30;;;;;;;5.80;100.00;102168.31;4995250;28;20035;-80
2021/12/14 03:00:23;;;;;;;39.75;21.40;;;;;;;6.32;100.00;102226.28;5001416;28;20026;-79
2021/12/14 03:02:49;;;;;;;39.00;20.73;;;;;;;6.01;100.00;102180.47;5002214;28;20039;-79
2021/12/14 03:05:25;;;;;;;39.47;21.08;;;;;;;5.98;100.00;102190.25;5004184;28;20058;-80
2021/12/14 03:07:58;;;;;;;37.88;21.50;;;;;;;6.19;100.00;102223.38;5000898;28;20058;-80
2021/12/14 03:10:40;;;;;;;41.83;21.52;;;;;;;6.25;100.00;102220.47;5010388;28;20014;-80
2021/12/14 03:13:13;;;;;;;39.95;20.80;;;;;;;6.41;100.00;102243.38;5012020;28;20022;-80
2021/12/14 03:15:51;;;;;;;38.47;21.05;;;;;;;6.12;100.00;102227.19;5006383;28;20044;-80
2021/12/14 03:18:24;;;;;;;39.92;21.23;;;;;;;6.04;100.00;102187.34;5008740;28;20034;-80
2021/12/14 03:20:57;;;;;;;40.53;22.45;;;;;;;6.15;100.00;102229.66;5001824;28;20026;-79
2021/12/14 03:23:30;;;;;;;40.45;22.15;;;;;;;6.23;100.00;102234.59;4973024;28;20026;-79
2021/12/14 03:26:06;;;;;;;42.33;22.90;;;;;;;6.35;100.00;102241.03;5011184;28;20027;-80
2021/12/14 03:28:36;;;;;;;40.08;21.58;;;;;;;5.81;100.00;102212.81;5021464;23;20058;-79
2021/12/14 03:31:08;;;;;;;44.33;22.35;;;;;;;6.22;100.00;102251.22;4998619;28;20034;-78
2021/12/14 03:33:44;;;;;;;39.85;21.73;;;;;;;5.80;100.00;102211.09;4979476;28;20037;-78
2021/12/14 03:36:15;;;;;;;43.35;22.48;;;;;;;5.89;100.00;102201.13;4994112;28;20090;-79
2021/12/14 03:38:50;;;;;;;42.30;22.58;;;;;;;6.06;100.00;102245.81;4984646;28;20034;-80
2021/12/14 03:41:23;;;;;;;42.30;23.38;;;;;;;6.11;100.00;102241.25;4986039;28;20481;-79
2021/12/14 03:44:04;;;;;;;40.85;22.73;;;;;;;6.28;100.00;102243.94;5006746;28;20034;-80
2021/12/14 03:46:33;;;;;;;41.70;23.70;;;;;;;6.18;100.00;102223.47;4985580;28;20027;-80
2021/12/14 03:49:02;;;;;;;43.83;22.40;;;;;;;6.28;100.00;102241.31;4984638;28;20085;-80
2021/12/14 03:51:31;;;;;;;41.30;23.20;;;;;;;6.02;100.00;102202.31;5001477;28;20033;-80
2021/12/14 03:54:00;;;;;;;40.42;22.67;;;;;;;6.07;100.00;102216.06;5002422;28;20034;-81
2021/12/14 03:56:27;;;;;;;39.90;21.70;;;;;;;6.15;100.00;102224.41;5000847;28;20038;-80
2021/12/14 03:58:53;;;;;;;42.17;21.25;;;;;;;6.13;100.00;102241.16;5002494;28;20046;-81
2021/12/14 04:01:28;;;;;;;41.83;22.77;;;;;;;6.01;100.00;102226.81;4984064;28;20022;-81
2021/12/14 04:04:09;;;;;;;41.70;22.58;;;;;;;6.07;100.00;102247.53;4982678;28;20042;-81
2021/12/14 04:13:57;;;;;;;44.38;23.10;;;;;;;5.90;100.00;102244.78;5077756;27;2536219;-78
2021/12/14 04:16:25;;;;;;;44.22;23.80;;;;;;;5.86;100.00;102210.84;5127272;28;20069;-79
2021/12/14 07:43:14;;;;;;;;;;;;;;;5.85;100.00;102310.53;5025981;28;19921;-79
2021/12/14 07:45:42;;;;;;;;;;;;;;;6.01;100.00;102315.97;5412039;23;19941;-77
2021/12/14 07:48:07;;;;;;;;;;;;;;;6.16;100.00;102317.94;4993132;28;20122;-77
2021/12/14 07:50:44;;;;;;;;;;;;;;;6.07;100.00;102316.56;4993861;28;19918;-77
2021/12/14 07:53:10;;;;;;;;;;;;;;;6.06;100.00;102324.50;5014327;28;19953;-78
2021/12/14 07:55:42;;;;;;;;;;;;;;;6.16;100.00;102333.69;5017599;28;19970;-81
2021/12/14 07:58:08;;;;;;;;;;;;;;;6.14;100.00;102326.81;4999570;28;19918;-80
2021/12/14 08:00:40;;;;;;;;;;;;;;;6.11;100.00;102334.78;4994981;28;19930;-76
2021/12/14 08:03:05;;;;;;;;;;;;;;;6.11;100.00;102338.28;4992924;28;19922;-77
2021/12/14 08:05:31;;;;;;;;;;;;;;;6.27;100.00;102338.47;4993372;28;20009;-77
2021/12/14 08:07:58;;;;;;;;;;;;;;;6.31;100.00;102337.38;4993249;28;19918;-77
2021/12/14 08:10:26;;;;;;;;;;;;;;;6.25;100.00;102333.28;4982018;28;20283;-78
2021/12/14 08:13:23;;;;;;;;;;;;;;;6.40;100.00;102341.38;4997346;28;19996;-78
2021/12/14 08:15:56;;;;;;;;;;;;;;;6.30;100.00;102340.94;5000006;28;19924;-78
2021/12/14 08:18:23;;;;;;;;;;;;;;;6.24;100.00;102339.41;4998905;28;19918;-77
2021/12/14 08:20:55;;;;;;;;;;;;;;;6.17;100.00;102342.41;4996220;28;19918;-77
2021/12/14 08:23:25;;;;;;;;;;;;;;;6.20;100.00;102343.13;4994286;28;19918;-74
2021/12/14 08:25:52;;;;;;;;;;;;;;;6.18;100.00;102344.97;5009925;28;20020;-76
2021/12/14 08:28:21;;;;;;;;;;;;;;;6.26;100.00;102347.25;4992146;28;20293;-76
2021/12/14 08:31:03;;;;;;;;;;;;;;;6.18;100.00;102349.34;4990935;28;19922;-76
2021/12/14 08:33:29;;;;;;;;;;;;;;;6.19;100.00;102354.53;4991109;28;19918;-76
2021/12/14 08:35:59;;;;;;;;;;;;;;;6.23;100.00;102356.09;4989778;28;19918;-77
2021/12/14 08:38:31;;;;;;;;;;;;;;;6.19;100.00;102358.91;4991723;28;19945;-78
2021/12/14 08:41:00;;;;;;;;;;;;;;;6.19;100.00;102364.16;4993158;28;19941;-76
2021/12/14 08:43:33;;;;;;;;;;;;;;;6.04;100.00;102350.81;5007006;28;20464;-77
2021/12/14 08:45:59;;;;;;;;;;;;;;;6.20;100.00;102358.88;5006829;28;19922;-76
2021/12/14 08:48:35;;;;;;;49.38;21.83;;;;;;;5.79;100.00;102302.91;4990566;28;19938;-76
2021/12/14 08:51:25;;;;;;;46.22;20.63;;;;;;;6.13;100.00;102353.94;4991150;28;20108;-76
2021/12/14 08:54:04;;;;;;;46.35;20.95;;;;;;;5.11;100.00;102214.06;4977878;28;20590;-77
2021/12/14 08:56:34;;;;;;;55.00;22.10;;;;;;;5.65;100.00;102278.16;4960439;28;20500;-77
2021/12/14 08:59:01;;;;;;;54.35;22.27;;;;;;;5.97;100.00;102333.63;4987375;28;20023;-77
2021/12/14 09:01:30;;;;;;;48.45;21.48;;;;;;;6.09;100.00;102365.47;4975988;28;20250;-77
2021/12/14 09:04:07;;;;;;;54.15;23.02;;;;;;;5.77;100.00;102304.78;4976428;28;20023;-76
2021/12/14 09:06:41;;;;;;;46.80;21.55;;;;;;;5.73;100.00;102290.09;4992491;28;20166;-77
2021/12/14 09:09:12;;;;;;;50.58;20.48;;;;;;;6.06;100.00;102358.59;4977972;28;20156;-77
2021/12/14 09:11:40;;;;;;;53.65;22.65;;;;;;;5.63;100.00;102266.88;4982942;28;20031;-80
2021/12/14 09:14:09;;;;;;;63.80;26.58;;;;;;;6.18;100.00;102355.44;5010213;28;20366;-76
2021/12/14 09:16:36;;;;;;;57.83;22.60;;;;;;;5.82;100.00;102308.88;4961709;28;20053;-76
2021/12/14 09:19:20;;;;;;;54.63;22.05;;;;;;;5.70;100.00;102298.06;4988039;28;20101;-76
2021/12/14 09:21:48;;;;;;;;;;;;;;;6.11;100.00;102359.25;4991650;28;20054;-76
2021/12/14 09:24:16;;;;;;;;;;;;;;;6.19;100.00;102357.13;4978951;28;19914;-80
2021/12/14 09:26:47;;;;;;;;;;;;;;;6.12;100.00;102353.09;4978911;28;19926;-78
2021/12/14 09:29:15;;;;;;;;;;;;;;;6.14;100.00;102359.13;4977568;28;19925;-76
2021/12/14 09:31:42;;;;;;;;;;;;;;;6.29;100.00;102362.88;4975103;28;19917;-76
2021/12/14 09:34:09;;;;;;;;;;;;;;;6.31;100.00;102352.28;4976889;28;20476;-76
2021/12/14 09:36:35;;;;;;;;;;;;;;;6.21;100.00;102365.81;4971179;28;20032;-76
2021/12/14 09:39:08;;;;;;;;;;;;;;;6.19;100.00;102364.16;4976986;28;19926;-77
2021/12/14 09:41:34;;;;;;;;;;;;;;;6.25;100.00;102356.03;4979381;28;19968;-79
2021/12/14 09:44:01;;;;;;;;;;;;;;;6.28;100.00;102361.13;5016440;28;20463;-78
2021/12/14 09:46:27;;;;;;;;;;;;;;;6.30;100.00;102364.56;4999761;28;19957;-78
2021/12/14 09:48:55;;;;;;;;;;;;;;;6.27;100.00;102364.69;4977740;28;19918;-78
2021/12/14 09:51:25;;;;;;;;;;;;;;;6.40;100.00;102372.84;4978558;28;19941;-77
2021/12/14 09:53:56;;;;;;;;;;;;;;;6.35;100.00;102370.44;4976299;28;19986;-77
2021/12/14 09:56:22;;;;;;;;;;;;;;;6.27;100.00;102375.19;4976259;28;20146;-77
2021/12/14 09:58:50;;;;;;;;;;;;;;;6.45;100.00;102360.41;4974780;28;19913;-76
2021/12/14 10:01:17;;;;;;;;;;;;;;;6.56;100.00;102358.13;4979553;28;20493;-76
2021/12/14 10:03:47;;;;;;;;;;;;;;;6.57;100.00;102359.84;4997068;28;19925;-77
2021/12/14 10:06:14;;;;;;;;;;;;;;;6.47;100.00;102361.16;4979691;28;19913;-76
2021/12/14 10:08:43;;;;;;;;;;;;;;;6.50;100.00;102358.44;4991129;28;19997;-75
2021/12/14 10:11:12;;;;;;;;;;;;;;;6.41;100.00;102364.94;4973472;28;19922;-75
2021/12/14 10:13:40;;;;;;;;;;;;;;;6.45;100.00;102360.41;4958051;28;19981;-75
2021/12/14 10:16:09;;;;;;;;;;;;;;;6.40;100.00;102357.97;4975913;28;19993;-77
2021/12/14 10:18:37;;;;;;;;;;;;;;;6.47;100.00;102376.91;4974269;28;19994;-76
2021/12/14 10:21:11;;;;;;;;;;;;;;;6.47;100.00;102371.66;4975446;28;19968;-76
2021/12/14 10:23:37;;;;;;;;;;;;;;;6.51;100.00;102369.78;4990946;28;19926;-76
2021/12/14 10:26:04;;;;;;;;;;;;;;;6.43;100.00;102364.88;4975336;28;19914;-75
2021/12/14 10:28:30;;;;;;;;;;;;;;;6.60;100.00;102362.31;4974547;28;19996;-76
2021/12/14 10:30:59;;;;;;;;;;;;;;;6.71;100.00;102364.47;4973867;28;19941;-76
2021/12/14 10:33:27;;;;;;;;;;;;;;;6.62;100.00;102365.72;4973541;28;20008;-75
2021/12/14 10:35:57;;;;;;;;;;;;;;;6.55;100.00;102366.94;4977335;28;19921;-76
2021/12/14 10:38:37;;;;;;;;;;;;;;;6.57;100.00;102364.25;4975112;28;19946;-74
2021/12/14 10:43:47;;;;;;;;;;;;;;;6.74;100.00;102359.06;4975508;28;19914;-76
2021/12/14 10:46:18;;;;;;;;;;;;;;;6.69;100.00;102361.06;4974125;28;20001;-75
2021/12/14 10:48:47;;;;;;;;;;;;;;;6.77;100.00;102365.94;4989594;28;20016;-75
2021/12/14 10:51:13;;;;;;;;;;;;;;;6.58;100.00;102369.41;4991268;28;19922;-75
2021/12/14 10:53:42;;;;;;;;;;;;;;;6.69;100.00;102363.69;4975187;28;19965;-76
2021/12/14 10:56:13;;;;;;;;;;;;;;;6.74;100.00;102366.09;4973985;28;20323;-76
2021/12/14 10:58:38;;;;;;;;;;;;;;;6.72;100.00;102365.31;4974295;28;19994;-75
2021/12/14 11:01:07;;;;;;;;;;;;;;;6.70;100.00;102362.78;4973578;28;20064;-75
2021/12/14 11:03:36;;;;;;;;;;;;;;;6.66;100.00;102359.44;4975357;28;19997;-74
2021/12/14 11:06:04;;;;;;;;;;;;;;;6.72;100.00;102362.69;4990606;28;19940;-75
2021/12/14 11:08:38;;;;;;;;;;;;;;;6.75;100.00;102370.44;4960823;28;19997;-75
2021/12/14 11:11:10;;;;;;;;;;;;;;;6.74;100.00;102364.31;4978726;28;19933;-75
2021/12/14 11:13:40;;;;;;;;;;;;;;;6.72;100.00;102363.53;4982802;28;19954;-75
2021/12/14 11:16:07;;;;;;;;;;;;;;;6.76;100.00;102366.88;4976700;28;19914;-76
2021/12/14 11:18:32;;;;;;;;;;;;;;;6.82;100.00;102359.59;4971755;28;19913;-75
2021/12/14 11:21:07;;;;;;;;;;;;;;;6.82;100.00;102362.22;4973426;28;19918;-76
2021/12/14 11:23:33;;;;;;;;;;;;;;;6.85;100.00;102362.06;4966308;28;19925;-74
2021/12/14 11:26:03;;;;;;;;;;;;;;;6.88;100.00;102359.31;4971809;28;19965;-78
2021/12/14 11:28:33;;;;;;;;;;;;;;;6.93;100.00;102366.97;4988077;28;20498;-76
2021/12/14 11:31:23;;;;;;;;;;;;;;;7.04;100.00;102354.19;4987952;28;19929;-76
2021/12/14 11:33:51;;;;;;;;;;;;;;;7.01;100.00;102353.47;5005447;28;19918;-75
2021/12/14 11:36:25;;;;;;;;;;;;;;;6.98;100.00;102357.09;4975830;28;19914;-76
2021/12/14 11:39:09;;;;;;;;;;;;;;;6.93;100.00;102352.97;4974808;28;19922;-75
2021/12/14 11:41:38;;;;;;;;;;;;;;;6.88;100.00;102353.19;4976620;28;19914;-76
2021/12/14 11:44:15;;;;;;;;;;;;;;;6.88;100.00;102346.19;4991660;28;19924;-75
2021/12/14 11:46:54;;;;;;;;;;;;;;;6.91;100.00;102350.44;4974100;28;19925;-74
2021/12/14 11:49:20;;;;;;;;;;;;;;;6.85;100.00;102354.19;4991264;28;19922;-75
2021/12/14 11:51:46;;;;;;;;;;;;;;;6.92;100.00;102346.03;4975717;28;20004;-74
2021/12/14 11:54:15;;;;;;;;;;;;;;;6.93;100.00;102345.97;4956153;28;19962;-76
2021/12/14 11:56:44;;;;;;;;;;;;;;;6.87;100.00;102344.44;4991259;28;19910;-74
2021/12/14 11:59:10;;;;;;;;;;;;;;;6.84;100.00;102335.88;4976115;28;19914;-75
2021/12/14 12:01:39;;;;;;;;;;;;;;;6.92;100.00;102340.75;4976647;28;19914;-75
2021/12/14 12:04:10;;;;;;;;;;;;;;;7.02;100.00;102348.16;4990217;28;20035;-76
2021/12/14 12:09:35;;;;;;;;;;;;;;;7.08;100.00;102339.13;4972305;28;20377;-76
2021/12/14 12:12:06;;;;;;;;;;;;;;;7.12;100.00;102335.41;4992265;28;19914;-76
2021/12/14 12:14:51;;;;;;;;;;;;;;;7.17;100.00;102335.19;4991840;28;19998;-76
2021/12/14 12:17:34;;;;;;;;;;;;;;;7.06;100.00;102328.69;4974737;28;19964;-75
2021/12/14 12:20:06;;;;;;;;;;;;;;;7.03;100.00;102334.06;4989560;28;19921;-76
2021/12/14 12:22:34;;;;;;;;;;;;;;;7.06;100.00;102325.19;4980617;28;19918;-74
2021/12/14 12:25:03;;;;;;;;;;;;;;;7.13;100.00;102336.25;4992178;28;19945;-76
2021/12/14 12:27:40;;;;;;;;;;;;;;;7.13;100.00;102328.38;4979151;28;19922;-78
2021/12/14 12:30:23;;;;;;;;;;;;;;;7.32;100.00;102332.69;4982415;28;19914;-76
2021/12/14 12:32:51;;;;;;;;;;;;;;;7.18;100.00;102331.66;5018751;23;19953;-76
2021/12/14 12:35:39;;;;;;;;;;;;;;;7.12;100.00;102322.28;5005267;23;19923;-76
2021/12/14 12:40:37;;;;;;;;;;;;;;;7.21;100.00;102329.72;4983939;28;19984;-75
2021/12/14 12:43:24;;;;;;;;;;;;;;;7.24;100.00;102336.59;4979466;28;19926;-77
2021/12/14 12:45:56;;;;;;;;;;;;;;;7.17;100.00;102322.91;4976061;28;20005;-78
2021/12/14 12:48:44;;;;;;;;;;;;;;;7.25;100.00;102322.56;4964326;28;19918;-77
2021/12/14 12:51:10;;;;;;;;;;;;;;;7.38;100.00;102328.03;4979426;28;19937;-77
2021/12/14 12:53:36;;;;;;;;;;;;;;;7.48;100.00;102316.16;4979881;28;20008;-75
2021/12/14 12:56:09;;;;;;;;;;;;;;;7.31;100.00;102323.13;4979212;28;19945;-74
2021/12/14 12:58:37;;;;;;;;;;;;;;;7.39;100.00;102325.34;4961587;28;19918;-74
2021/12/14 13:01:03;;;;;;;;;;;;;;;7.25;100.00;102322.56;4963571;28;19994;-77
2021/12/14 13:03:43;;;;;;;;;;;;;;;7.31;100.00;102316.97;4986959;28;19925;-78
2021/12/14 13:06:19;;;;;;;;;;;;;;;7.39;100.00;102321.88;4970481;28;19933;-76
2021/12/14 13:09:00;;;;;;;;;;;;;;;7.36;100.00;102319.38;4986984;28;19914;-79
2021/12/14 13:11:31;;;;;;;;;;;;;;;7.44;100.00;102314.59;5004217;23;20345;-78
2021/12/14 13:13:58;;;;;;;;;;;;;;;7.37;100.00;102321.09;4996758;28;19918;-76
2021/12/14 13:19:32;;;;;;;;;;;;;;;7.51;100.00;102326.53;4990226;28;19906;-75
2021/12/14 13:21:59;;;;;;;;;;;;;;;7.50;100.00;102317.78;4997048;28;19914;-77
2021/12/14 13:24:24;;;;;;;;;;;;;;;7.47;100.00;102315.31;4983757;28;19918;-76
2021/12/14 13:27:11;;;;;;;;;;;;;;;7.45;100.00;102322.44;4997935;28;19914;-78
2021/12/14 13:29:46;;;;;;;;;;;;;;;7.28;100.00;102319.78;4999066;28;19926;-78
2021/12/14 13:32:22;;;;;;;;;;;;;;;7.42;100.00;102313.84;4983426;28;19922;-77
2021/12/14 13:34:58;;;;;;;;;;;;;;;7.42;100.00;102313.84;4998061;28;19918;-78
2021/12/14 13:37:29;;;;;;;;;;;;;;;7.37;100.00;102314.06;5001459;28;19928;-76
2021/12/14 13:39:55;;;;;;;;;;;;;;;7.36;100.00;102319.38;4996024;28;19920;-76
2021/12/14 13:42:29;;;;;;;;;;;;;;;7.40;100.00;102327.03;4977189;28;20375;-77
2021/12/14 13:44:59;;;;;;;;;;;;;;;7.42;100.00;102322.56;4982395;28;20024;-76
2021/12/14 13:47:30;;;;;;;;;;;;;;;7.45;100.00;102316.34;4945133;28;19914;-76
2021/12/14 13:49:57;;;;;;;;;;;;;;;7.53;100.00;102327.28;4990032;28;19936;-75
2021/12/14 13:52:23;;;;;;;;;;;;;;;7.37;100.00;102324.56;4990236;28;20339;-76
2021/12/14 13:55:03;;;;;;;;;;;;;;;7.36;100.00;102325.50;4974007;28;19973;-77
2021/12/14 13:57:29;;;;;;;;;;;;;;;7.40;100.00;102318.31;4988778;28;19925;-77
2021/12/14 13:59:54;;;;;;;;;;;;;;;7.38;100.00;102328.03;4979414;28;19914;-77
2021/12/14 14:02:19;;;;;;;;;;;;;;;7.33;100.00;102325.66;4993607;28;19914;-77
2021/12/14 14:04:46;;;;;;;;;;;;;;;7.46;100.00;102331.16;4996320;28;19981;-79
2021/12/14 14:07:12;;;;;;;;;;;;;;;7.24;100.00;102333.97;4980523;28;19925;-76
2021/12/14 14:09:40;;;;;;;;;;;;;;;7.35;100.00;102339.56;4960234;28;19925;-78
2021/12/14 14:12:05;;;;;;;;;;;;;;;7.30;100.00;102337.16;4959932;28;19918;-76
2021/12/14 14:14:33;;;;;;;;;;;;;;;7.31;100.00;102340.63;4990672;28;19933;-78
2021/12/14 14:17:00;;;;;;;;;;;;;;;7.35;100.00;102334.31;4975564;28;19933;-76
2021/12/14 14:19:46;;;;;;;;;;;;;;;7.35;100.00;102339.56;4972386;28;19921;-77
2021/12/14 14:22:16;;;;;;;;;;;;;;;7.39;100.00;102340.28;4971233;28;19977;-77
2021/12/14 14:24:44;;;;;;;;;;;;;;;7.36;100.00;102338.66;4977261;28;19958;-75
2021/12/14 14:27:29;;;;;;;;;;;;;;;7.40;100.00;102345.44;4993427;28;19921;-77
2021/12/14 14:29:54;;;;;;;;;;;;;;;7.52;100.00;102350.09;4993790;28;19922;-77
2021/12/14 14:32:31;;;;;;;;;;;;;;;7.54;100.00;102350.03;4961349;28;19965;-79
2021/12/14 14:34:58;;;;;;;;;;;;;;;7.55;100.00;102338.59;4961121;28;19964;-80
2021/12/14 14:37:37;;;;;;;;;;;;;;;7.47;100.00;102346.00;4977367;28;19925;-78
2021/12/14 14:40:10;;;;;;;;;;;;;;;7.50;100.00;102351.13;4974440;28;19906;-77
2021/12/14 14:42:37;;;;;;;;;;;;;;;7.37;100.00;102350.84;4976408;28;19914;-78
2021/12/14 14:45:15;;;;;;;;;;;;;;;7.40;100.00;102347.22;4977947;28;20012;-78
2021/12/14 14:48:06;;;;;;;;;;;;;;;7.40;100.00;102353.31;4986317;28;19937;-80
2021/12/14 14:50:33;;;;;;;;;;;;;;;7.39;100.00;102353.41;4994429;28;20001;-78
2021/12/14 14:53:15;;;;;;;;;;;;;;;7.42;100.00;102356.72;5014402;28;19933;-78
2021/12/14 14:55:45;;;;;;;;;;;;;;;7.46;100.00;102360.91;4979816;28;19918;-78
2021/12/14 14:58:13;;;;;;;;;;;;;;;7.41;100.00;102357.66;4974339;28;19969;-78
2021/12/14 15:00:50;;;;;;;;;;;;;;;7.30;100.00;102359.97;4996598;28;19990;-77
2021/12/14 15:03:22;;;;;;;;;;;;;;;7.46;100.00;102365.31;4984238;28;19914;-77
2021/12/14 15:05:53;;;;;;;;;;;;;;;7.37;100.00;102360.53;4968189;28;19917;-78
2021/12/14 15:08:19;;;;;;;;;;;;;;;7.46;100.00;102360.91;5002927;28;19908;-77
2021/12/14 15:10:47;;;;;;;;;;;;;;;7.55;100.00;102369.28;4988438;28;19965;-77
2021/12/14 15:13:19;;;;;;;;;;;;;;;7.62;100.00;102365.44;4992095;28;19928;-80
2021/12/14 15:16:04;;;;;;;;;;;;;;;7.64;100.00;102368.84;4996807;28;19914;-77
2021/12/14 15:18:54;;;;;;;;;;;;;;;7.64;100.00;102368.84;4975183;28;19918;-77
2021/12/14 15:21:29;;;;;;;;;;;;;;;7.57;100.00;102362.19;5008496;28;19913;-77
2021/12/14 15:23:55;;;;;;;;;;;;;;;7.50;100.00;102361.63;4966205;28;19942;-77
2021/12/14 15:26:22;;;;;;;;;;;;;;;7.48;100.00;102364.31;4992996;28;19949;-79
2021/12/14 15:29:07;;;;;;;;;;;;;;;7.47;100.00;102364.38;4992874;28;19926;-78
2021/12/14 15:31:33;;;;;;;;;;;;;;;7.44;100.00;102364.53;4978414;28;19910;-79
2021/12/14 15:33:59;;;;;;;;;;;;;;;7.38;100.00;102367.47;4975051;29;19921;-79
2021/12/14 15:36:28;;;;;;;;;;;;;;;7.38;100.00;102370.09;4989560;28;19914;-79
2021/12/14 15:39:05;;;;;;;;;;;;;;;7.59;100.00;102369.06;4967492;29;20029;-78
2021/12/14 15:41:36;;;;;;;;;;;;;;;7.61;100.00;102368.97;4975653;29;19965;-78
2021/12/14 15:44:06;;;;;;;;;;;;;;;7.51;100.00;102372.03;4971663;28;20018;-79
2021/12/14 15:46:40;;;;;;;;;;;;;;;7.49;100.00;102368.66;4972963;29;19914;-81
2021/12/14 15:49:17;;;;;;;;;;;;;;;7.43;100.00;102362.88;4981673;28;19918;-80
2021/12/14 15:51:45;;;;;;;;;;;;;;;7.41;100.00;102372.59;4973508;29;19910;-81
2021/12/14 15:54:10;;;;;;;;;;;;;;;7.49;100.00;102371.31;4963906;29;19982;-80
2021/12/14 15:56:36;;;;;;;;;;;;;;;7.52;100.00;102376.41;4964093;29;19921;-81
2021/12/14 15:59:06;;;;;;;;;;;;;;;7.48;100.00;102371.38;4962027;29;19929;-79
2021/12/14 16:01:35;;;;;;;;;;;;;;;7.48;100.00;102368.75;4986498;28;19914;-80
2021/12/14 16:04:18;;;;;;;;;;;;;;;7.38;100.00;102376.22;4981146;28;19918;-78
2021/12/14 16:06:45;;;;;;;;;;;;;;;7.51;100.00;102379.09;4984127;28;19972;-80
2021/12/14 16:09:13;;;;;;;;;;;;;;;7.49;100.00;102381.81;4962400;29;20005;-77
2021/12/14 16:11:48;;;;;;;;;;;;;;;7.59;100.00;102379.56;5461696;22;19922;-75
2021/12/14 16:17:06;;;;;;;;;;;;;;;7.56;100.00;102377.06;4985397;28;20009;-77
2021/12/14 16:19:32;;;;;;;;;;;;;;;7.49;100.00;102386.19;4966899;28;20281;-77
2021/12/14 16:24:33;;;;;;;;;;;;;;;7.50;100.00;102383.50;5164246;23;19925;-76